Time;durP1;ratioP1;P1;durP2;ratioP2;P2;SDS_P1;SDS_P2;PMS_P1;PMS_P2;Temp;Humidity;BMP_temperature;BMP_pressure;BME280_temperature;BME280_humidity;BME280_pressure;Samples;Min_cycle;Max_cycle;Signal;HPM_P1;HPM_P2
2022/03/04 00:01:37;;;;;;;;;;;;;;;26.63;58.69;96674.05;585437;242;65288;-66
2022/03/04 00:04:05;;;;;;;;;;;;;;;26.62;58.71;96672.45;585490;242;66799;-66
2022/03/04 00:06:32;;;;;;;;;;;;;;;26.62;59.10;96679.74;585441;242;66480;-66
2022/03/04 00:09:00;;;;;;;;;;;;;;;26.59;57.72;96675.77;585445;242;63422;-66
2022/03/04 00:11:28;;;;;;;;;;;;;;;26.60;59.10;96679.26;585416;242;66755;-66
2022/03/04 00:13:55;;;;;;;;;;;;;;;26.56;59.52;96666.42;585441;242;68802;-66
2022/03/04 00:16:24;;;;;;;;;;;;;;;26.57;59.43;96675.29;585426;242;62698;-66
2022/03/04 00:19:13;;;;;;;;;;;;;;;26.56;58.66;96677.20;585441;242;68922;-66
2022/03/04 00:21:21;;;;;;;;;;;;;;;26.55;59.00;96680.22;583781;242;68770;-66
2022/03/04 00:23:49;;;;;;;;;;;;;;;26.55;59.28;96672.14;585427;242;65323;-66
2022/03/04 00:26:16;;;;;;;;;;;;;;;26.53;59.05;96669.75;585437;242;68830;-66
2022/03/04 00:28:44;;;;;;;;;;;;;;;26.53;59.29;96666.27;585419;242;66447;-66
2022/03/04 00:31:11;;;;;;;;;;;;;;;26.52;59.55;96665.48;585020;242;63084;-66
2022/03/04 00:33:39;;;;;;;;;;;;;;;26.49;59.16;96652.61;585397;242;66729;-66
2022/03/04 00:36:06;;;;;;;;;;;;;;;26.51;59.56;96652.30;585464;242;66501;-66
2022/03/04 00:38:34;;;;;;;;;;;;;;;26.49;58.95;96658.00;585425;242;63226;-66
2022/03/04 00:41:01;;;;;;;;;;;;;;;26.48;59.68;96664.47;585188;242;66701;-66
2022/03/04 00:43:29;;;;;;;;;;;;;;;26.48;58.79;96656.39;585208;242;66953;-66
2022/03/04 00:45:56;;;;;;;;;;;;;;;26.47;60.13;96648.64;585401;242;63177;-66
2022/03/04 00:48:24;;;;;;;;;;;;;;;26.45;59.73;96646.25;585427;242;66629;-66
2022/03/04 00:50:51;;;;;;;;;;;;;;;26.44;59.21;96660.05;585411;242;68916;-66
2022/03/04 00:53:19;;;;;;;;;;;;;;;26.43;59.14;96653.84;585433;242;63301;-66
2022/03/04 00:55:47;;;;;;;;;;;;;;;26.43;59.66;96655.75;585452;242;69231;-66
2022/03/04 00:58:14;;;;;;;;;;;;;;;26.42;59.43;96651.48;585465;242;68612;-66
2022/03/04 01:00:42;;;;;;;;;;;;;;;26.41;59.68;96645.31;585410;242;65414;-66
2022/03/04 01:03:09;;;;;;;;;;;;;;;26.41;58.63;96639.10;585431;242;68539;-66
2022/03/04 01:05:38;;;;;;;;;;;;;;;26.39;59.46;96639.44;585403;242;68855;-66
2022/03/04 01:08:05;;;;;;;;;;;;;;;26.37;59.73;96640.85;581314;242;66966;-66
2022/03/04 01:10:33;;;;;;;;;;;;;;;26.37;59.22;96644.34;585465;242;69049;-66
2022/03/04 01:13:00;;;;;;;;;;;;;;;26.36;58.99;96642.76;585412;242;66370;-66
2022/03/04 01:15:28;;;;;;;;;;;;;;;26.35;59.22;96641.97;585405;242;64077;-66
2022/03/04 01:17:55;;;;;;;;;;;;;;;26.34;57.14;96645.75;585426;242;66599;-66
2022/03/04 01:20:23;;;;;;;;;;;;;;;26.34;57.89;96647.66;585440;242;68372;-66
2022/03/04 01:22:51;;;;;;;;;;;;;;;26.33;58.97;96644.18;585466;242;63257;-66
2022/03/04 01:25:18;;;;;;;;;;;;;;;26.32;59.37;96641.79;585426;242;66634;-66
2022/03/04 01:27:46;;;;;;;;;;;;;;;26.31;59.61;96637.52;585404;242;68522;-66
2022/03/04 01:30:14;;;;;;;;;;;;;;;26.29;59.85;96626.26;585441;242;65174;-66
2022/03/04 01:32:41;;;;;;;;;;;;;;;26.28;59.75;96627.38;585391;242;66410;-66
2022/03/04 01:35:09;;;;;;;;;;;;;;;26.27;59.74;96631.98;585494;242;68740;-66
2022/03/04 01:37:37;;;;;;;;;;;;;;;26.25;59.42;96628.80;585429;242;65172;-66
2022/03/04 01:40:05;;;;;;;;;;;;;;;26.23;58.73;96631.00;585413;242;68860;-66
2022/03/04 01:42:33;;;;;;;;;;;;;;;26.25;59.44;96631.49;585688;241;68769;-66
2022/03/04 01:45:01;;;;;;;;;;;;;;;26.24;58.96;96635.27;587054;241;65374;-66
2022/03/04 01:47:28;;;;;;;;;;;;;;;26.22;59.21;96625.92;587106;241;66742;-66
2022/03/04 01:49:56;;;;;;;;;;;;;;;26.21;59.96;96633.21;587152;241;64638;-66
2022/03/04 01:52:23;;;;;;;;;;;;;;;26.22;59.46;96628.61;587021;241;63292;-66
2022/03/04 01:54:51;;;;;;;;;;;;;;;26.19;59.55;96629.24;587024;241;68652;-66
2022/03/04 01:57:18;;;;;;;;;;;;;;;26.17;59.73;96629.58;587103;241;68593;-66
2022/03/04 01:59:46;;;;;;;;;;;;;;;26.16;60.07;96625.27;587084;241;65232;-66
2022/03/04 02:02:14;;;;;;;;;;;;;;;26.16;59.96;96621.80;587044;241;68945;-66
2022/03/04 02:04:43;;;;;;;;;;;;;;;26.14;60.03;96619.44;587089;241;68653;-66
2022/03/04 02:07:10;;;;;;;;;;;;;;;26.13;60.16;96624.00;587042;241;64097;-66
2022/03/04 02:09:38;;;;;;;;;;;;;;;26.11;59.78;96625.45;587106;241;68507;-66
2022/03/04 02:12:05;;;;;;;;;;;;;;;26.11;60.38;96620.06;587062;241;66804;-66
2022/03/04 02:14:33;;;;;;;;;;;;;;;26.10;59.97;96624.63;587070;241;63197;-66
2022/03/04 02:17:01;;;;;;;;;;;;;;;26.09;60.06;96620.36;587038;241;69250;-66
2022/03/04 02:19:28;;;;;;;;;;;;;;;26.08;59.64;96623.36;587046;241;68804;-66
2022/03/04 02:21:57;;;;;;;;;;;;;;;26.09;60.30;96624.97;586975;241;65325;-66
2022/03/04 02:24:25;;;;;;;;;;;;;;;26.06;59.54;96620.20;587108;241;66983;-66
2022/03/04 02:26:53;;;;;;;;;;;;;;;26.06;59.38;96622.90;587035;241;68804;-66
2022/03/04 02:29:21;;;;;;;;;;;;;;;26.05;59.64;96622.08;587060;241;65352;-66
2022/03/04 02:31:49;;;;;;;;;;;;;;;26.05;60.18;96621.30;587023;241;68895;-66
2022/03/04 02:34:17;;;;;;;;;;;;;;;26.04;60.47;96630.49;587013;241;68719;-66
2022/03/04 02:36:44;;;;;;;;;;;;;;;26.02;60.33;96622.71;587078;241;65298;-66
2022/03/04 02:39:12;;;;;;;;;;;;;;;26.01;59.36;96631.13;587063;241;68810;-66
2022/03/04 02:41:40;;;;;;;;;;;;;;;26.00;59.38;96630.33;587045;241;68737;-66
2022/03/04 02:44:09;;;;;;;;;;;;;;;26.00;59.57;96630.33;586987;241;65303;-66
2022/03/04 02:46:37;;;;;;;;;;;;;;;26.00;60.13;96629.52;587019;241;68874;-67
2022/03/04 02:49:06;;;;;;;;;;;;;;;25.98;59.92;96626.36;587086;241;68601;-66
2022/03/04 02:51:33;;;;;;;;;;;;;;;25.97;59.90;96630.93;587032;241;64148;-67
2022/03/04 02:54:01;;;;;;;;;;;;;;;25.95;59.96;96626.99;587045;241;68769;-66
2022/03/04 02:56:29;;;;;;;;;;;;;;;25.95;59.95;96632.37;587034;241;68681;-66
2022/03/04 02:58:56;;;;;;;;;;;;;;;25.95;59.76;96626.99;587038;241;65345;-67
2022/03/04 03:01:25;;;;;;;;;;;;;;;25.94;60.24;96630.77;587075;241;68941;-66
2022/03/04 03:03:53;;;;;;;;;;;;;;;25.96;60.87;96633.95;587085;239;68699;-66
2022/03/04 03:06:20;;;;;;;;;;;;;;;25.91;59.80;96627.59;587052;241;65302;-67
2022/03/04 03:08:50;;;;;;;;;;;;;;;25.90;59.79;96626.02;587083;241;69509;-66
2022/03/04 03:11:17;;;;;;;;;;;;;;;25.90;60.59;96625.23;587032;241;69357;-66
2022/03/04 03:13:45;;;;;;;;;;;;;;;25.89;60.94;96621.75;587082;241;65316;-66
2022/03/04 03:16:12;;;;;;;;;;;;;;;25.88;60.13;96625.52;587096;241;69590;-66
2022/03/04 03:18:40;;;;;;;;;;;;;;;25.85;60.30;96626.16;587049;241;68787;-66
2022/03/04 03:21:07;;;;;;;;;;;;;;;25.84;60.40;96624.58;587090;241;65271;-67
2022/03/04 03:23:35;;;;;;;;;;;;;;;25.87;61.52;96623.16;587096;241;68681;-67
2022/03/04 03:26:03;;;;;;;;;;;;;;;25.82;60.46;96621.37;587056;241;68654;-67
2022/03/04 03:28:30;;;;;;;;;;;;;;;25.82;60.48;96625.96;587133;241;63267;-67
2022/03/04 03:30:58;;;;;;;;;;;;;;;25.80;60.63;96614.70;587076;241;66242;-67
2022/03/04 03:33:25;;;;;;;;;;;;;;;25.79;61.02;96624.69;587038;241;66477;-66
2022/03/04 03:35:54;;;;;;;;;;;;;;;25.79;60.77;96624.69;587062;241;64102;-66
2022/03/04 03:38:22;;;;;;;;;;;;;;;25.78;60.10;96628.49;587069;241;69045;-66
2022/03/04 03:40:50;;;;;;;;;;;;;;;25.77;60.48;96626.89;587102;241;68666;-66
2022/03/04 03:43:18;;;;;;;;;;;;;;;25.76;60.97;96625.31;587007;241;65270;-66
2022/03/04 03:45:45;;;;;;;;;;;;;;;25.74;60.14;96627.52;587039;241;66204;-66
2022/03/04 03:48:13;;;;;;;;;;;;;;;25.74;61.37;96627.52;587075;241;68703;-66
2022/03/04 03:50:41;;;;;;;;;;;;;;;25.73;61.64;96628.62;587041;241;63289;-66
2022/03/04 03:53:09;;;;;;;;;;;;;;;25.74;60.77;96622.13;587098;241;68825;-66
2022/03/04 03:55:37;;;;;;;;;;;;;;;25.73;62.19;96628.62;587069;241;66520;-66
2022/03/04 03:58:04;;;;;;;;;;;;;;;25.72;61.43;96624.33;587068;241;63243;-66
2022/03/04 04:00:32;;;;;;;;;;;;;;;25.71;61.78;96622.75;587031;241;68788;-66
2022/03/04 04:02:59;;;;;;;;;;;;;;;25.69;61.13;96624.95;587085;241;68682;-66
2022/03/04 04:05:27;;;;;;;;;;;;;;;25.67;60.44;96629.84;587058;241;65393;-66
2022/03/04 04:07:54;;;;;;;;;;;;;;;25.67;61.87;96625.28;587108;241;68833;-66
2022/03/04 04:10:24;;;;;;;;;;;;;;;25.66;61.14;96625.58;587015;239;66420;-66
2022/03/04 04:12:53;;;;;;;;;;;;;;;25.66;61.50;96629.06;587048;241;65173;-66
2022/03/04 04:15:22;;;;;;;;;;;;;;;25.66;61.09;96615.61;587053;241;66713;-66
2022/03/04 04:17:49;;;;;;;;;;;;;;;25.66;61.45;96625.58;587094;241;68554;-66
2022/03/04 04:20:17;;;;;;;;;;;;;;;25.64;61.37;96622.40;587115;241;65254;-66
2022/03/04 04:22:44;;;;;;;;;;;;;;;25.62;60.52;96619.25;587042;241;68874;-66
2022/03/04 04:25:12;;;;;;;;;;;;;;;25.61;61.35;96620.33;587041;241;69162;-66
2022/03/04 04:27:41;;;;;;;;;;;;;;;25.60;61.31;96616.06;587040;241;65143;-66
2022/03/04 04:30:09;;;;;;;;;;;;;;;25.59;60.84;96619.84;587070;241;68820;-66
2022/03/04 04:32:36;;;;;;;;;;;;;;;25.58;61.67;96620.95;587092;241;68736;-67
2022/03/04 04:35:05;;;;;;;;;;;;;;;25.59;62.75;96619.84;587052;241;65347;-66
2022/03/04 04:37:32;;;;;;;;;;;;;;;25.58;61.13;96624.44;587024;241;68880;-66
2022/03/04 04:40:00;;;;;;;;;;;;;;;25.58;61.69;96626.34;587062;241;68947;-66
2022/03/04 04:42:27;;;;;;;;;;;;;;;25.58;61.71;96629.03;586810;241;65180;-66
2022/03/04 04:44:55;;;;;;;;;;;;;;;25.55;61.50;96629.66;585371;242;68510;-66
2022/03/04 04:47:22;;;;;;;;;;;;;;;25.55;61.96;96626.96;585473;242;68559;-66
2022/03/04 04:49:50;;;;;;;;;;;;;;;25.54;62.06;96634.25;585351;242;63923;-66
2022/03/04 04:52:17;;;;;;;;;;;;;;;25.53;61.94;96634.55;585438;242;69145;-66
2022/03/04 04:54:45;;;;;;;;;;;;;;;25.51;62.43;96634.05;585434;242;68672;-66
2022/03/04 04:57:12;;;;;;;;;;;;;;;25.49;61.57;96633.59;585429;242;65278;-66
2022/03/04 04:59:40;;;;;;;;;;;;;;;25.50;61.90;96627.88;585477;242;66643;-66
2022/03/04 05:02:07;;;;;;;;;;;;;;;25.49;61.71;96630.90;585017;242;68569;-66
2022/03/04 05:04:35;;;;;;;;;;;;;;;25.49;61.74;96634.38;585429;242;63311;-66
2022/03/04 05:07:03;;;;;;;;;;;;;;;25.45;61.73;96636.91;585425;242;66713;-66
2022/03/04 05:09:31;;;;;;;;;;;;;;;25.47;62.23;96634.67;585408;242;68875;-67
2022/03/04 05:11:58;;;;;;;;;;;;;;;25.45;62.59;96639.59;585489;242;65336;-67
2022/03/04 05:14:26;;;;;;;;;;;;;;;25.46;61.83;96649.23;585397;242;68816;-66
2022/03/04 05:16:53;;;;;;;;;;;;;;;25.45;62.62;96644.15;585400;242;68703;-67
2022/03/04 05:19:21;;;;;;;;;;;;;;;25.43;62.34;96649.07;585432;242;65601;-66
2022/03/04 05:21:48;;;;;;;;;;;;;;;25.43;62.78;96651.76;585397;242;68804;-67
2022/03/04 05:24:16;;;;;;;;;;;;;;;25.42;61.48;96650.94;585479;242;68702;-67
2022/03/04 05:26:43;;;;;;;;;;;;;;;25.40;62.37;96647.78;585411;242;65529;-67
2022/03/04 05:29:11;;;;;;;;;;;;;;;25.38;61.52;96652.67;585417;242;68873;-67
2022/03/04 05:31:40;;;;;;;;;;;;;;;25.38;62.23;96647.30;585415;242;68461;-67
2022/03/04 05:34:08;;;;;;;;;;;;;;;25.39;62.07;96653.47;585427;242;65535;-66
2022/03/04 05:36:37;;;;;;;;;;;;;;;25.40;62.62;96649.66;585424;242;68771;-67
2022/03/04 05:39:05;;;;;;;;;;;;;;;25.39;62.91;96642.70;585435;242;67042;-67
2022/03/04 05:41:32;;;;;;;;;;;;;;;25.38;62.68;96651.89;585399;242;63353;-67
2022/03/04 05:44:00;;;;;;;;;;;;;;;25.37;62.89;96651.09;585279;242;66773;-67
2022/03/04 05:46:27;;;;;;;;;;;;;;;25.40;62.75;96645.09;585405;242;68757;-66
2022/03/04 05:48:55;;;;;;;;;;;;;;;25.41;62.13;96648.58;585374;242;65331;-67
2022/03/04 05:51:22;;;;;;;;;;;;;;;25.38;62.75;96652.67;585412;242;68949;-67
2022/03/04 05:53:51;;;;;;;;;;;;;;;25.38;61.91;96647.30;585380;242;66398;-67
2022/03/04 05:56:19;;;;;;;;;;;;;;;25.38;62.38;96647.30;585410;242;65437;-67
2022/03/04 05:58:47;;;;;;;;;;;;;;;25.39;63.03;96646.19;585384;242;68141;-67
2022/03/04 06:01:14;;;;;;;;;;;;;;;25.39;62.57;96648.88;585447;242;68306;-67
2022/03/04 06:03:42;;;;;;;;;;;;;;;25.40;63.37;96650.48;585468;242;65177;-67
2022/03/04 06:06:12;;;;;;;;;;;;;;;25.40;62.63;96649.66;585434;242;68852;-67
2022/03/04 06:08:40;;;;;;;;;;;;;;;25.40;61.67;96655.86;585420;242;68675;-67
2022/03/04 06:11:08;;;;;;;;;;;;;;;25.42;62.22;96656.32;585421;242;65357;-66
2022/03/04 06:13:38;;;;;;;;;;;;;;;25.42;61.87;96653.63;585433;242;68652;-66
2022/03/04 06:16:06;;;;;;;;;;;;;;;25.43;61.46;96659.83;585318;242;68512;-67
2022/03/04 06:18:34;;;;;;;;;;;;;;;25.43;60.48;96655.23;585448;242;65492;-67
2022/03/04 06:21:01;;;;;;;;;;;;;;;25.48;60.55;96659.67;585436;242;68860;-66
2022/03/04 06:23:29;;;;;;;;;;;;;;;25.49;60.74;96642.45;585398;242;66574;-66
2022/03/04 06:25:58;;;;;;;;;;;;;;;25.50;60.21;96645.92;585414;242;63151;-67
2022/03/04 06:28:26;;;;;;;;;;;;;;;25.51;59.57;96642.13;585393;242;68821;-67
2022/03/04 06:30:54;;;;;;;;;;;;;;;25.53;60.23;96645.30;585455;242;68705;-66
2022/03/04 06:33:31;;;;;;;;;;;;;;;25.54;59.92;96639.63;585325;242;65445;-66
2022/03/04 06:36:03;;;;;;;;;;;;;;;25.55;60.72;96648.48;585210;242;68756;-65
2022/03/04 06:38:32;;;;;;;;;;;;;;;25.55;60.97;96641.20;585300;242;68731;-66
2022/03/04 06:41:00;;;;;;;;;;;;;;;25.58;61.18;96645.17;584508;242;65627;-65
2022/03/04 06:43:28;;;;;;;;;;;;;;;25.58;61.48;96647.86;586132;241;66762;-65
2022/03/04 06:45:56;;;;;;;;;;;;;;;25.59;61.77;96649.44;588242;239;66423;-65
2022/03/04 06:48:23;;;;;;;;;;;;;;;25.60;61.36;96642.97;587019;241;63256;-65
2022/03/04 06:50:51;;;;;;;;;;;;;;;25.63;61.13;96655.80;586807;241;66491;-65
2022/03/04 06:53:19;;;;;;;;;;;;;;;25.63;62.18;96653.11;586876;241;69179;-64
2022/03/04 06:55:47;;;;;;;;;;;;;;;25.63;61.44;96648.52;587043;241;65406;-65
2022/03/04 06:58:14;;;;;;;;;;;;;;;25.66;61.57;96657.88;587073;241;68680;-62
2022/03/04 07:00:42;;;;;;;;;;;;;;;25.68;62.29;96656.47;586423;241;68746;-63
2022/03/04 07:03:10;;;;;;;;;;;;;;;25.69;59.66;96663.42;586971;241;65477;-63
2022/03/04 07:05:38;;;;;;;;;;;;;;;25.72;61.92;96653.15;590532;237;68715;-63
2022/03/04 07:08:14;;;;;;;;;;;;;;;25.73;62.14;96660.92;596925;237;66540;-63
2022/03/04 07:10:39;;;;;;;;;;;;;;;25.75;61.34;96661.39;596863;237;63186;-63
2022/03/04 07:13:07;;;;;;;;;;;;;;;25.78;59.53;96659.97;597087;237;68314;-64
2022/03/04 07:15:35;;;;;;;;;;;;;;;25.79;60.93;96665.06;597075;237;68608;-64
2022/03/04 07:18:03;;;;;;;;;;;;;;;25.80;59.55;96666.64;597097;237;65634;-64
2022/03/04 07:20:30;;;;;;;;;;;;;;;25.83;62.12;96668.73;597060;237;66787;-64
2022/03/04 07:22:58;;;;;;;;;;;;;;;25.85;60.11;96663.05;597072;237;68553;-64
2022/03/04 07:25:26;;;;;;;;;;;;;;;25.86;62.27;96668.14;592546;237;65346;-66
2022/03/04 07:27:53;;;;;;;;;;;;;;;25.88;61.15;96665.91;588913;240;68799;-65
2022/03/04 07:30:21;;;;;;;;;;;;;;;25.91;59.45;96665.28;589220;240;68368;-66
2022/03/04 07:32:49;;;;;;;;;;;;;;;25.92;61.58;96663.41;589340;240;65363;-65
2022/03/04 07:35:17;;;;;;;;;;;;;;;25.94;60.25;96668.46;589327;240;68856;-65
2022/03/04 07:37:44;;;;;;;;;;;;;;;25.95;61.26;96665.47;589047;240;68679;-65
2022/03/04 07:40:13;;;;;;;;;;;;;;;25.97;62.20;96671.31;589262;240;65616;-63
2022/03/04 07:42:41;;;;;;;;;;;;;;;25.98;60.40;96669.44;588000;240;69520;-64
2022/03/04 07:45:10;;;;;;;;;;;;;;;26.02;58.29;96663.10;584476;242;68819;-64
2022/03/04 07:47:38;;;;;;;;;;;;;;;26.04;59.91;96668.19;584545;242;63140;-70
2022/03/04 07:50:07;;;;;;;;;;;;;;;26.07;57.01;96675.64;584479;242;68961;-65
2022/03/04 07:52:36;;;;;;;;;;;;;;;26.06;59.37;96668.67;584464;242;68709;-65
2022/03/04 07:55:07;;;;;;;;;;;;;;;26.06;59.49;96671.37;584533;242;65320;-65
2022/03/04 07:57:34;;;;;;;;;;;;;;;26.08;58.87;96669.95;584494;242;68878;-67
2022/03/04 08:00:04;;;;;;;;;;;;;;;26.09;57.29;96670.74;584534;242;68467;-60
2022/03/04 08:02:33;;;;;;;;;;;;;;;26.11;57.49;96673.92;584412;242;44959;-59
2022/03/04 08:05:01;;;;;;;;;;;;;;;26.16;58.26;96673.75;584409;242;66616;-65
2022/03/04 08:07:28;;;;;;;;;;;;;;;26.18;58.13;96676.14;584219;242;68965;-65
2022/03/04 08:09:56;;;;;;;;;;;;;;;26.20;57.34;96682.02;584525;242;63280;-65
2022/03/04 08:12:25;;;;;;;;;;;;;;;26.22;60.46;96674.40;584575;242;66743;-64
2022/03/04 08:14:53;;;;;;;;;;;;;;;26.21;59.92;96681.69;584547;242;68724;-62
2022/03/04 08:17:21;;;;;;;;;;;;;;;26.23;58.71;96678.70;584544;242;65340;-63
2022/03/04 08:19:49;;;;;;;;;;;;;;;26.26;58.08;96670.77;584570;242;68813;-64
2022/03/04 08:22:16;;;;;;;;;;;;;;;26.28;58.36;96679.34;584503;242;68578;-68
2022/03/04 08:24:44;;;;;;;;;;;;;;;26.30;58.30;96677.14;584583;242;66232;-63
2022/03/04 08:27:11;;;;;;;;;;;;;;;26.32;57.00;96685.67;584588;242;68473;-65
2022/03/04 08:29:39;;;;;;;;;;;;;;;26.32;53.62;96685.67;584550;242;68718;-64
2022/03/04 08:32:06;;;;;;;;;;;;;;;26.41;54.07;96684.91;584542;242;65389;-65
2022/03/04 08:34:34;;;;;;;;;;;;;;;26.43;55.00;96688.88;584572;242;69117;-64
2022/03/04 08:37:02;;;;;;;;;;;;;;;26.45;56.54;96685.87;584585;242;69255;-65
2022/03/04 08:39:30;;;;;;;;;;;;;;;26.46;56.76;96682.85;584422;242;63276;-65
2022/03/04 08:41:57;;;;;;;;;;;;;;;26.46;56.98;96690.94;584423;242;66645;-64
2022/03/04 08:44:25;;;;;;;;;;;;;;;26.48;58.21;96687.94;584486;241;66499;-66
2022/03/04 08:46:52;;;;;;;;;;;;;;;26.42;55.70;96689.20;584478;242;65527;-65
2022/03/04 08:49:20;;;;;;;;;;;;;;;26.48;55.59;96685.25;583710;242;68971;-66
2022/03/04 08:51:48;;;;;;;;;;;;;;;26.50;56.51;96691.91;583854;242;69165;-66
2022/03/04 08:54:15;;;;;;;;;;;;;;;26.53;57.25;96685.13;583593;242;66019;-65
2022/03/04 08:56:43;;;;;;;;;;;;;;;26.54;56.78;96678.62;583276;242;68734;-66
2022/03/04 08:59:12;;;;;;;;;;;;;;;26.56;56.77;96673.72;583588;242;69021;-65
2022/03/04 09:01:39;;;;;;;;;;;;;;;26.58;57.05;96671.50;584064;242;65283;-66
2022/03/04 09:04:07;;;;;;;;;;;;;;;26.60;57.08;96685.47;584260;242;68797;-66
2022/03/04 09:06:36;;;;;;;;;;;;;;;26.62;57.06;96671.66;584169;242;49387;-61
2022/03/04 09:09:04;;;;;;;;;;;;;;;26.64;57.35;96674.84;584350;242;65301;-60
2022/03/04 09:11:32;;;;;;;;;;;;;;;26.66;57.57;96678.02;584586;242;66395;-60
2022/03/04 09:14:01;;;;;;;;;;;;;;;26.67;57.09;96683.08;584556;242;68459;-60
2022/03/04 09:16:32;;;;;;;;;;;;;;;26.68;57.15;96673.08;584514;242;63286;-60
2022/03/04 09:19:00;;;;;;;;;;;;;;;26.70;57.85;96676.27;584556;242;68841;-60
2022/03/04 09:21:28;;;;;;;;;;;;;;;26.72;57.96;96674.05;584495;242;68924;-63
2022/03/04 09:23:57;;;;;;;;;;;;;;;26.73;57.59;96676.41;584604;242;45055;-65
2022/03/04 09:26:26;;;;;;;;;;;;;;;26.70;55.42;96671.66;584415;242;69864;-72
2022/03/04 09:28:54;;;;;;;;;;;;;;;26.75;55.92;96682.29;584456;242;66510;-70
2022/03/04 09:31:21;;;;;;;;;;;;;;;26.75;55.95;96676.89;584570;242;63103;-69
2022/03/04 09:33:49;;;;;;;;;;;;;;;26.79;56.73;96679.74;584497;242;66483;-69
2022/03/04 09:36:17;;;;;;;;;;;;;;;26.79;57.58;96683.26;584465;242;69001;-69
2022/03/04 09:38:45;;;;;;;;;;;;;;;26.81;56.92;96680.23;584473;242;65315;-69
2022/03/04 09:41:12;;;;;;;;;;;;;;;26.82;57.29;96678.32;584393;242;68510;-69
2022/03/04 09:43:40;;;;;;;;;;;;;;;26.83;55.68;96680.71;584414;241;68583;-69
2022/03/04 09:46:07;;;;;;;;;;;;;;;26.87;56.44;96661.98;584501;242;63198;-68
2022/03/04 09:48:40;;;;;;;;;;;;;;;26.88;57.90;96674.38;584562;242;69615;-67
2022/03/04 09:51:08;;;;;;;;;;;;;;;26.88;57.29;96674.38;584521;242;68663;-63
2022/03/04 09:53:35;;;;;;;;;;;;;;;26.89;57.68;96673.25;584533;242;65356;-70
2022/03/04 09:56:03;;;;;;;;;;;;;;;26.90;57.55;96672.13;584595;242;66537;-69
2022/03/04 09:58:30;;;;;;;;;;;;;;;26.91;57.08;96665.65;584495;242;66470;-68
2022/03/04 10:00:58;;;;;;;;;;;;;;;26.91;57.16;96668.34;584531;242;63015;-69
2022/03/04 10:03:33;;;;;;;;;;;;;;;26.92;56.85;96665.31;584586;242;66402;-69
2022/03/04 10:06:01;;;;;;;;;;;;;;;26.94;57.01;96662.31;584535;242;68635;-57
2022/03/04 10:08:29;;;;;;;;;;;;;;;26.88;57.44;96666.29;584534;242;65279;-57
2022/03/04 10:10:58;;;;;;;;;;;;;;;26.83;58.86;96659.14;584549;242;68487;-70
2022/03/04 10:13:45;;;;;;;;;;;;;;;26.81;58.33;96655.97;584563;242;68490;-69
2022/03/04 10:16:14;;;;;;;;;;;;;;;26.81;57.79;96652.48;584521;242;63005;-63
2022/03/04 10:18:42;;;;;;;;;;;;;;;26.80;57.29;96657.08;584523;242;68600;-64
2022/03/04 10:21:10;;;;;;;;;;;;;;;26.81;56.26;96655.97;584504;242;68460;-64
2022/03/04 10:23:38;;;;;;;;;;;;;;;26.83;56.13;96650.27;584553;242;65370;-64
2022/03/04 10:26:05;;;;;;;;;;;;;;;26.85;55.01;96653.45;584487;242;66322;-65
2022/03/04 10:28:33;;;;;;;;;;;;;;;26.86;55.56;96649.63;584552;242;68321;-70
2022/03/04 10:31:00;;;;;;;;;;;;;;;26.86;54.98;96646.94;584504;242;64007;-66
2022/03/04 10:33:29;;;;;;;;;;;;;;;26.85;55.38;96654.23;584363;242;68755;-63
2022/03/04 10:36:07;;;;;;;;;;;;;;;26.86;54.99;96649.63;584454;242;68977;-64
2022/03/04 10:38:35;;;;;;;;;;;;;;;26.86;54.90;96647.72;584437;242;65447;-68
2022/03/04 10:41:04;;;;;;;;;;;;;;;26.87;54.17;96648.50;583929;242;68800;-67
2022/03/04 10:43:35;;;;;;;;;;;;;;;26.88;54.33;96645.50;584211;241;68727;-66
2022/03/04 10:46:03;;;;;;;;;;;;;;;26.89;56.00;96643.59;584503;242;65428;-66
2022/03/04 10:48:32;;;;;;;;;;;;;;;26.89;54.33;96638.98;584406;242;66746;-66
2022/03/04 10:51:04;;;;;;;;;;;;;;;26.92;53.25;96632.95;584575;242;66329;-66
2022/03/04 10:53:30;;;;;;;;;;;;;;;26.95;53.82;96636.92;584530;242;66287;-68
2022/03/04 10:55:58;;;;;;;;;;;;;;;26.93;52.00;96633.77;584401;242;68397;-67
2022/03/04 10:58:28;;;;;;;;;;;;;;;26.98;51.82;96631.70;584447;242;67712;-68
2022/03/04 11:00:59;;;;;;;;;;;;;;;27.01;52.84;96630.28;584351;242;65503;-68
2022/03/04 11:03:28;;;;;;;;;;;;;;;27.03;53.49;96633.42;584495;242;69130;-71
2022/03/04 11:05:57;;;;;;;;;;;;;;;27.04;54.24;96624.23;584541;242;66398;-58
2022/03/04 11:08:25;;;;;;;;;;;;;;;27.06;54.30;96629.30;584446;242;65333;-60
2022/03/04 11:10:53;;;;;;;;;;;;;;;27.07;54.44;96622.81;584496;242;68908;-68
2022/03/04 11:13:21;;;;;;;;;;;;;;;27.08;54.88;96618.98;584441;242;68522;-67
2022/03/04 11:15:49;;;;;;;;;;;;;;;27.07;55.09;96618.20;584385;242;63179;-62
2022/03/04 11:18:20;;;;;;;;;;;;;;;27.07;56.50;96618.20;584550;242;66525;-63
2022/03/04 11:20:49;;;;;;;;;;;;;;;27.08;57.43;96608.20;584422;242;68549;-67
2022/03/04 11:23:20;;;;;;;;;;;;;;;27.06;57.90;96605.81;584354;242;65484;-67
2022/03/04 11:25:49;;;;;;;;;;;;;;;27.05;56.53;96593.45;584461;242;68552;-65
2022/03/04 11:28:18;;;;;;;;;;;;;;;27.05;56.11;96598.84;582882;242;68647;-66
2022/03/04 11:30:47;;;;;;;;;;;;;;;27.04;56.81;96597.27;584463;242;63216;-67
2022/03/04 11:33:19;;;;;;;;;;;;;;;27.02;56.47;96588.70;584629;242;68661;-68
2022/03/04 11:35:54;;;;;;;;;;;;;;;27.03;56.45;96582.19;584522;242;68514;-66
2022/03/04 11:38:40;;;;;;;;;;;;;;;27.04;55.68;96580.27;584504;242;63127;-67
2022/03/04 11:41:08;;;;;;;;;;;;;;;27.04;56.14;96589.18;584514;242;68682;-67
2022/03/04 11:43:45;;;;;;;;;;;;;;;27.04;56.20;96580.27;587358;240;68202;-67
2022/03/04 11:46:19;;;;;;;;;;;;;;;27.04;56.52;96575.70;589247;240;65416;-67
2022/03/04 11:48:47;;;;;;;;;;;;;;;27.03;56.30;96570.61;589395;240;68917;-67
2022/03/04 11:51:16;;;;;;;;;;;;;;;27.03;57.80;96574.09;589255;240;68947;-67
2022/03/04 11:53:44;;;;;;;;;;;;;;;27.04;56.12;96570.30;589355;240;65504;-68
2022/03/04 11:56:12;;;;;;;;;;;;;;;27.04;56.92;96574.88;589389;240;68813;-60
2022/03/04 11:58:57;;;;;;;;;;;;;;;27.03;56.29;96566.00;589339;240;68796;-67
2022/03/04 12:01:29;;;;;;;;;;;;;;;27.04;56.63;96569.48;589386;240;65495;-67
2022/03/04 12:04:13;;;;;;;;;;;;;;;27.05;57.00;96577.27;589382;240;68894;-68
2022/03/04 12:06:41;;;;;;;;;;;;;;;27.06;57.87;96564.57;589398;240;68793;-66
2022/03/04 12:09:26;;;;;;;;;;;;;;;27.04;57.37;96567.61;589154;240;65195;-66
2022/03/04 12:12:11;;;;;;;;;;;;;;;27.04;57.08;96574.88;589097;240;68630;-68
2022/03/04 12:14:42;;;;;;;;;;;;;;;27.05;56.30;96569.17;589282;240;68692;-66
2022/03/04 12:17:10;;;;;;;;;;;;;;;27.05;57.04;96571.09;589336;238;65540;-67
2022/03/04 12:19:39;;;;;;;;;;;;;;;27.04;56.79;96564.09;589371;240;69028;-67
2022/03/04 12:22:08;;;;;;;;;;;;;;;27.03;57.30;96568.70;589401;240;68699;-68
2022/03/04 12:24:36;;;;;;;;;;;;;;;27.05;57.61;96565.70;589278;240;65294;-68
2022/03/04 12:27:04;;;;;;;;;;;;;;;27.04;58.15;96566.79;584338;240;68675;-68
2022/03/04 12:29:50;;;;;;;;;;;;;;;27.04;56.93;96574.88;589358;240;67359;-67
2022/03/04 12:32:16;;;;;;;;;;;;;;;27.04;55.33;96570.30;589262;240;65375;-69
2022/03/04 12:34:55;;;;;;;;;;;;;;;27.05;56.59;96571.87;589373;240;68768;-67
2022/03/04 12:37:22;;;;;;;;;;;;;;;27.03;57.46;96566.00;589382;240;68790;-67
2022/03/04 12:39:51;;;;;;;;;;;;;;;27.02;57.73;96567.12;589292;240;65537;-67
2022/03/04 12:42:20;;;;;;;;;;;;;;;27.03;57.83;96571.39;588780;240;49866;-66
2022/03/04 12:44:48;;;;;;;;;;;;;;;27.01;56.33;96568.25;584525;242;68476;-68
2022/03/04 12:47:16;;;;;;;;;;;;;;;27.01;57.06;96579.04;584557;242;65409;-66
2022/03/04 12:49:46;;;;;;;;;;;;;;;27.01;56.88;96581.73;584534;242;68821;-67
2022/03/04 12:52:15;;;;;;;;;;;;;;;27.00;57.79;96575.52;584520;242;68809;-68
2022/03/04 12:54:44;;;;;;;;;;;;;;;26.97;52.83;96570.77;584588;242;46421;-69